Time;durP1;ratioP1;P1;durP2;ratioP2;P2;SDS_P1;SDS_P2;PMS_P1;PMS_P2;Temp;Humidity;BMP_temperature;BMP_pressure;BME280_temperature;BME280_humidity;BME280_pressure;Samples;Min_cycle;Max_cycle;Signal;HPM_P1;HPM_P2
2022/12/12 00:00:27;;;;;;;3.92;2.77;;;;;;;11.75;90.85;98298.32;1589857;88;21067;-76
2022/12/12 00:02:56;;;;;;;4.15;2.42;;;;;;;11.43;90.09;98298.94;1602210;88;22922;-76
2022/12/12 00:05:22;;;;;;;6.12;2.40;;;;;;;11.12;89.47;98299.02;1570067;89;21037;-77
2022/12/12 00:07:49;;;;;;;2.42;2.22;;;;;;;10.89;88.99;98305.58;1576106;90;21045;-75
2022/12/12 00:10:17;;;;;;;3.58;2.30;;;;;;;10.67;88.61;98299.77;1571194;89;21185;-76
2022/12/12 00:12:45;;;;;;;3.00;2.22;;;;;;;10.42;88.05;98302.19;1585196;88;21045;-75
2022/12/12 00:15:13;;;;;;;4.25;2.35;;;;;;;10.22;87.75;98311.83;1604252;87;21026;-75
2022/12/12 00:17:42;;;;;;;2.80;2.40;;;;;;;10.03;87.40;98314.81;1578502;88;21241;-76
2022/12/12 00:20:09;;;;;;;5.42;2.37;;;;;;;9.87;87.16;98308.28;1586332;87;21609;-75
2022/12/12 00:22:36;;;;;;;3.62;2.45;;;;;;;9.71;87.03;98312.57;1591889;88;21190;-76
2022/12/12 00:25:03;;;;;;;4.58;2.20;;;;;;;9.54;86.67;98308.79;1586874;88;21055;-75
2022/12/12 00:27:32;;;;;;;4.72;2.65;;;;;;;9.38;86.68;98308.32;1585947;87;21799;-79
2022/12/12 00:29:58;;;;;;;3.30;2.70;;;;;;;9.23;86.57;98291.51;1576211;89;21360;-75
2022/12/12 00:32:25;;;;;;;6.08;2.70;;;;;;;9.14;86.50;98291.99;1602387;88;21068;-75
2022/12/12 00:34:51;;;;;;;4.20;2.83;;;;;;;9.07;86.42;98292.30;1587746;89;21083;-75
2022/12/12 00:37:18;;;;;;;4.78;2.85;;;;;;;8.98;86.23;98288.87;1583070;87;21004;-76
2022/12/12 00:39:44;;;;;;;6.80;2.85;;;;;;;8.91;86.07;98287.03;1604111;87;21982;-75
2022/12/12 00:42:13;;;;;;;7.00;3.12;;;;;;;8.83;86.04;98282.58;1571970;88;21576;-76
2022/12/12 00:44:40;;;;;;;4.05;3.00;;;;;;;8.77;85.96;98293.25;1590910;89;21018;-76
2022/12/12 00:47:06;;;;;;;3.40;3.10;;;;;;;8.72;85.86;98302.63;1577933;89;21144;-77
2022/12/12 00:49:33;;;;;;;4.62;3.40;;;;;;;8.65;85.84;98309.50;1587576;89;21079;-75
2022/12/12 00:52:00;;;;;;;3.50;3.10;;;;;;;8.57;85.80;98309.80;1602821;88;22557;-75
2022/12/12 00:54:27;;;;;;;3.40;3.10;;;;;;;8.53;85.81;98311.12;1604559;89;21057;-75
2022/12/12 00:56:53;;;;;;;4.10;3.47;;;;;;;8.50;85.87;98314.08;1602449;89;21094;-75
2022/12/12 00:59:20;;;;;;;4.25;3.37;;;;;;;8.47;85.87;98309.11;1587149;87;21450;-76
2022/12/12 01:01:47;;;;;;;3.40;3.10;;;;;;;8.45;85.89;98305.00;1599838;87;21012;-76
2022/12/12 01:04:13;;;;;;;3.80;3.17;;;;;;;8.44;85.91;98308.61;1585927;88;22602;-76
2022/12/12 01:06:40;;;;;;;3.95;3.30;;;;;;;8.42;85.86;98319.30;1592464;88;21024;-75
2022/12/12 01:09:07;;;;;;;3.30;2.95;;;;;;;8.38;85.80;98304.80;1551161;89;20997;-76
2022/12/12 01:11:34;;;;;;;5.42;3.70;;;;;;;8.35;85.84;98305.12;1578346;89;21682;-76
2022/12/12 01:14:01;;;;;;;4.60;3.37;;;;;;;8.34;85.81;98310.02;1595965;88;21123;-76
2022/12/12 01:16:28;;;;;;;3.72;3.33;;;;;;;8.32;85.78;98304.92;1567637;90;21928;-75
2022/12/12 01:18:54;;;;;;;4.90;3.83;;;;;;;8.29;85.69;98311.80;1566862;89;21134;-75
2022/12/12 01:21:22;;;;;;;3.98;3.58;;;;;;;8.28;85.54;98315.91;1575489;89;21095;-75
2022/12/12 01:23:48;;;;;;;4.83;3.65;;;;;;;8.27;85.52;98307.19;1559225;90;21440;-75
2022/12/12 01:26:18;;;;;;;5.15;3.98;;;;;;;8.24;85.51;98308.01;1580414;89;21763;-76
2022/12/12 01:28:45;;;;;;;5.33;3.50;;;;;;;8.21;85.51;98316.22;1573586;88;21914;-76
2022/12/12 01:31:13;;;;;;;3.20;2.90;;;;;;;8.17;85.45;98316.18;1575631;87;21069;-76
2022/12/12 01:33:44;;;;;;;4.83;3.02;;;;;;;8.12;85.41;98319.30;1564884;89;21083;-76
2022/12/12 01:36:09;;;;;;;3.67;2.70;;;;;;;8.07;85.39;98320.24;1563030;89;21067;-76
2022/12/12 01:38:37;;;;;;;3.55;2.90;;;;;;;8.04;85.38;98316.13;1575813;88;21040;-76
2022/12/12 01:41:04;;;;;;;3.10;2.80;;;;;;;8.02;85.26;98325.98;1581857;89;21945;-75
2022/12/12 01:43:30;;;;;;;7.40;2.87;;;;;;;7.96;85.14;98327.91;1556815;90;21455;-76
2022/12/12 01:46:02;;;;;;;3.25;2.95;;;;;;;7.92;84.98;98324.44;1582739;89;20988;-76
2022/12/12 01:48:43;;;;;;;7.55;2.87;;;;;;;7.89;84.99;98328.18;1568513;89;21171;-76
2022/12/12 01:51:13;;;;;;;3.50;3.20;;;;;;;7.83;84.96;98325.37;1578609;87;21376;-77
2022/12/12 01:53:40;;;;;;;3.50;3.17;;;;;;;7.73;84.95;98335.48;1550467;90;21883;-75
2022/12/12 01:56:11;;;;;;;4.87;3.12;;;;;;;7.68;84.87;98334.28;1599696;88;21002;-76
2022/12/12 01:58:40;;;;;;;3.10;2.77;;;;;;;7.61;84.75;98342.43;1554547;89;21536;-79
2022/12/12 02:01:08;;;;;;;3.40;3.00;;;;;;;7.57;84.83;98337.98;1572724;88;21472;-79
2022/12/12 02:03:35;;;;;;;3.65;3.15;;;;;;;7.54;84.91;98329.59;1561377;90;21171;-75
2022/12/12 02:06:05;;;;;;;4.03;3.47;;;;;;;7.50;84.80;98348.75;1589968;87;21597;-75
2022/12/12 02:08:32;;;;;;;4.05;2.87;;;;;;;7.45;84.67;98339.20;1587737;89;21061;-76
2022/12/12 02:11:00;;;;;;;3.47;3.10;;;;;;;7.42;84.71;98342.94;1574458;88;21051;-76
2022/12/12 02:13:28;;;;;;;3.40;3.10;;;;;;;7.35;84.64;98349.80;1562432;88;21233;-76
2022/12/12 02:16:37;;;;;;;3.12;2.80;;;;;;;7.25;84.61;98364.80;1607196;87;21115;-76
2022/12/12 02:19:18;;;;;;;3.47;3.10;;;;;;;7.22;84.67;98355.89;1595609;88;21980;-77
2022/12/12 02:22:00;;;;;;;3.83;3.20;;;;;;;7.16;84.58;98378.83;1573899;90;21423;-76
2022/12/12 02:24:57;;;;;;;4.00;3.37;;;;;;;7.08;84.49;98370.86;1602681;88;21115;-77
2022/12/12 02:27:50;;;;;;;3.95;3.55;;;;;;;6.99;84.39;98373.89;1580079;88;21447;-77
2022/12/12 02:30:21;;;;;;;3.62;3.33;;;;;;;6.91;84.26;98386.09;1595503;88;21065;-77
2022/12/12 02:33:12;;;;;;;4.15;3.50;;;;;;;6.72;83.82;98390.95;1586046;89;21938;-77
2022/12/12 02:36:07;;;;;;;5.28;2.92;;;;;;;6.51;83.37;98387.26;1584021;88;21099;-76
2022/12/12 02:38:58;;;;;;;4.33;3.50;;;;;;;6.27;83.06;98387.75;1581923;88;21020;-76
2022/12/12 02:41:57;;;;;;;4.15;3.02;;;;;;;6.01;82.77;98379.70;1584192;88;21110;-76
2022/12/12 02:44:32;;;;;;;3.40;3.10;;;;;;;5.85;82.66;98392.52;1573227;89;21074;-76
2022/12/12 02:47:26;;;;;;;3.95;3.08;;;;;;;5.72;82.57;98389.72;1586316;88;21880;-76
2022/12/12 02:49:57;;;;;;;3.30;3.00;;;;;;;5.61;82.57;98385.94;1575346;88;20974;-76
2022/12/12 02:52:23;;;;;;;3.55;3.25;;;;;;;5.57;82.71;98381.10;1579387;88;21053;-79
2022/12/12 02:54:50;;;;;;;3.50;3.20;;;;;;;5.54;82.68;98376.98;1602920;88;22172;-76
2022/12/12 02:57:20;;;;;;;4.00;3.70;;;;;;;5.46;82.44;98392.55;1590609;88;21411;-77
2022/12/12 02:59:57;;;;;;;3.60;3.30;;;;;;;5.33;82.31;98399.38;1592278;88;21656;-76
2022/12/12 03:02:50;;;;;;;3.58;3.10;;;;;;;5.27;82.37;98399.08;1595923;87;21077;-77
2022/12/12 03:09:08;;;;;;;3.65;3.35;;;;;;;5.19;82.60;98403.69;1591186;88;21258;-77
2022/12/12 03:11:53;;;;;;;12.23;11.03;;;;;;;5.10;82.53;98400.09;1584563;89;21024;-76
2022/12/12 03:14:27;;;;;;;20.20;18.10;;;;;;;5.05;82.61;98396.24;1595335;88;21855;-77
2022/12/12 03:17:00;;;;;;;11.30;8.53;;;;;;;5.02;82.71;98398.66;1582076;89;21103;-75
2022/12/12 03:19:47;;;;;;;34.40;30.90;;;;;;;5.04;82.76;98408.98;1595229;87;21476;-75
2022/12/12 03:22:39;;;;;;;12.93;11.63;;;;;;;5.02;82.71;98395.18;1586074;88;21040;-75
2022/12/12 03:25:23;;;;;;;6.20;5.60;;;;;;;4.93;82.60;98405.17;1595264;87;21396;-76
2022/12/12 03:28:12;;;;;;;9.05;8.15;;;;;;;4.89;82.56;98398.05;1585153;88;22319;-76
2022/12/12 03:30:43;;;;;;;5.50;5.00;;;;;;;4.79;82.52;98408.98;1574518;87;21057;-76
2022/12/12 03:33:51;;;;;;;4.90;4.50;;;;;;;4.77;82.69;98416.13;1552791;90;21443;-76
2022/12/12 03:36:36;;;;;;;3.92;3.60;;;;;;;4.77;82.76;98416.96;1587216;88;21040;-76
2022/12/12 03:39:08;;;;;;;4.08;3.67;;;;;;;4.76;82.78;98423.16;1582879;88;20999;-76
2022/12/12 03:41:44;;;;;;;4.67;4.12;;;;;;;4.74;82.77;98409.88;1598176;88;21934;-76
2022/12/12 03:44:19;;;;;;;3.98;3.67;;;;;;;4.71;82.71;98411.42;1585471;88;21193;-79
2022/12/12 03:47:06;;;;;;;5.90;4.92;;;;;;;4.65;82.66;98415.89;1573773;88;21004;-77
2022/12/12 03:49:43;;;;;;;5.75;5.25;;;;;;;4.58;82.62;98422.95;1577071;88;21100;-77
2022/12/12 03:52:24;;;;;;;8.95;8.15;;;;;;;4.53;82.61;98421.67;1585084;88;21022;-77
2022/12/12 03:55:12;;;;;;;6.45;5.85;;;;;;;4.49;82.65;98422.42;1588522;88;21880;-77
2022/12/12 03:57:47;;;;;;;18.07;14.80;;;;;;;4.48;82.68;98432.54;1586183;88;21455;-76
2022/12/12 04:00:14;;;;;;;12.10;10.88;;;;;;;4.43;82.58;98439.92;1573445;88;21217;-76
2022/12/12 04:02:50;;;;;;;8.70;7.90;;;;;;;4.39;82.50;98440.34;1568754;90;21080;-76
2022/12/12 04:05:37;;;;;;;9.90;9.00;;;;;;;4.31;82.32;98450.95;1571584;87;21060;-76
2022/12/12 04:08:12;;;;;;;5.03;4.25;;;;;;;4.23;82.32;98442.92;1576502;88;22366;-78
2022/12/12 04:13:50;;;;;;;4.67;4.28;;;;;;;4.10;82.15;98454.06;1560889;90;21091;-76
2022/12/12 04:16:21;;;;;;;5.00;4.60;;;;;;;4.00;82.00;98447.95;1590616;87;21371;-76
2022/12/12 04:18:56;;;;;;;5.40;3.95;;;;;;;3.90;82.16;98459.63;1574956;88;21127;-76
2022/12/12 04:24:43;;;;;;;4.55;4.15;;;;;;;3.86;82.26;98460.86;1589962;88;21152;-76
2022/12/12 04:27:43;;;;;;;4.05;3.67;;;;;;;3.84;82.33;98461.91;1568043;89;21008;-76
2022/12/12 04:30:12;;;;;;;5.47;4.28;;;;;;;3.84;82.35;98461.44;1559649;88;21126;-76
2022/12/12 04:32:51;;;;;;;6.87;6.20;;;;;;;3.80;82.30;98456.13;1578298;88;21061;-77
2022/12/12 04:35:38;;;;;;;11.20;10.10;;;;;;;3.73;82.25;98450.56;1587149;88;22031;-77
2022/12/12 04:38:12;;;;;;;6.17;5.58;;;;;;;3.68;82.32;98438.38;1555870;90;21112;-76
2022/12/12 04:40:44;;;;;;;5.65;5.15;;;;;;;3.66;82.37;98453.32;1559538;90;21038;-77
2022/12/12 04:43:18;;;;;;;5.35;4.85;;;;;;;3.67;82.33;98462.84;1560428;88;21010;-76
2022/12/12 04:45:52;;;;;;;4.90;4.50;;;;;;;3.64;82.32;98460.45;1580121;89;21105;-76
2022/12/12 04:48:45;;;;;;;8.18;7.42;;;;;;;3.61;82.36;98458.58;1572407;88;21917;-76
2022/12/12 04:51:15;;;;;;;7.47;6.67;;;;;;;3.60;82.40;98457.75;1581092;87;21088;-77
2022/12/12 04:53:50;;;;;;;5.75;5.25;;;;;;;3.60;82.41;98456.93;1569267;90;21127;-77
2022/12/12 04:56:22;;;;;;;82.42;63.55;;;;;;;3.58;82.54;98452.31;1561940;88;21122;-77
2022/12/12 04:58:51;;;;;;;85.70;62.00;;;;;;;3.59;82.62;98453.97;1560441;90;21099;-77
2022/12/12 05:01:35;;;;;;;22.32;17.77;;;;;;;3.60;82.69;98460.37;1557540;89;22633;-77
2022/12/12 05:04:12;;;;;;;7.00;6.40;;;;;;;3.55;82.47;98462.98;1578646;88;21088;-76
2022/12/12 05:06:45;;;;;;;7.20;6.50;;;;;;;3.39;82.23;98459.50;1583663;88;21031;-76
2022/12/12 05:09:16;;;;;;;8.83;8.03;;;;;;;3.35;82.39;98453.67;1578720;88;21142;-77
2022/12/12 05:11:43;;;;;;;7.42;6.78;;;;;;;3.34;82.36;98461.63;1584552;88;21113;-76
2022/12/12 05:14:10;;;;;;;9.05;7.58;;;;;;;3.26;82.22;98464.84;1581719;89;21839;-77
2022/12/12 05:16:49;;;;;;;7.85;7.15;;;;;;;3.24;82.26;98471.15;1576126;89;21072;-76
2022/12/12 05:19:16;;;;;;;7.92;7.22;;;;;;;3.19;82.20;98481.97;1586636;88;21131;-77
2022/12/12 05:21:43;;;;;;;9.33;8.43;;;;;;;3.16;82.24;98473.88;1597345;88;22188;-76
2022/12/12 05:24:10;;;;;;;8.25;7.45;;;;;;;3.20;82.37;98486.70;1582134;89;21103;-76
2022/12/12 05:26:37;;;;;;;9.45;8.53;;;;;;;3.21;82.29;98488.36;1594486;88;22868;-76
2022/12/12 05:29:03;;;;;;;9.80;8.90;;;;;;;3.19;82.28;98500.22;1613498;88;21068;-76
2022/12/12 05:31:30;;;;;;;8.83;8.00;;;;;;;3.15;82.15;98515.75;1583464;87;20988;-79
2022/12/12 05:33:57;;;;;;;10.88;9.85;;;;;;;3.09;82.13;98518.38;1570023;89;21084;-82
2022/12/12 05:36:23;;;;;;;9.95;9.05;;;;;;;3.04;82.20;98525.72;1571264;88;21514;-76
2022/12/12 05:38:53;;;;;;;10.05;9.05;;;;;;;3.01;82.21;98527.75;1577621;88;21888;-76
2022/12/12 05:41:20;;;;;;;13.32;11.80;;;;;;;3.02;82.23;98532.02;1585647;88;21009;-76
2022/12/12 05:43:47;;;;;;;8.10;7.30;;;;;;;2.99;82.24;98543.97;1575301;88;21019;-76
2022/12/12 05:46:14;;;;;;;7.37;6.72;;;;;;;2.96;82.02;98545.52;1555345;90;21124;-75
2022/12/12 05:48:41;;;;;;;7.20;6.50;;;;;;;2.89;81.92;98549.06;1579779;88;21526;-75
2022/12/12 05:51:08;;;;;;;6.70;6.10;;;;;;;2.84;81.95;98556.42;1567539;88;21964;-76
2022/12/12 05:53:35;;;;;;;6.58;5.97;;;;;;;2.77;82.00;98566.48;1549409;89;21622;-76
2022/12/12 05:56:01;;;;;;;5.25;4.75;;;;;;;2.74;81.99;98584.14;1580884;88;21062;-76
2022/12/12 05:58:29;;;;;;;7.00;6.30;;;;;;;2.68;81.74;98590.64;1586825;88;21048;-77
2022/12/12 06:00:59;;;;;;;6.12;5.60;;;;;;;2.54;81.70;98579.96;1583894;88;21476;-76
2022/12/12 06:03:27;;;;;;;6.45;5.85;;;;;;;2.47;81.78;98584.44;1563146;90;22071;-82
2022/12/12 06:05:54;;;;;;;7.08;6.40;;;;;;;2.37;81.67;98598.63;1568508;89;21072;-77
2022/12/12 06:08:21;;;;;;;7.37;6.67;;;;;;;2.32;81.74;98610.31;1563563;87;21243;-76
2022/12/12 06:10:48;;;;;;;6.37;5.83;;;;;;;2.26;81.74;98607.23;1573556;89;21076;-76
2022/12/12 06:13:15;;;;;;;9.13;7.55;;;;;;;2.22;81.82;98617.97;1574550;88;21248;-75
2022/12/12 06:15:43;;;;;;;8.98;7.33;;;;;;;2.22;81.92;98638.81;1589886;88;22488;-76
2022/12/12 06:18:11;;;;;;;9.75;8.48;;;;;;;2.19;81.82;98646.86;1539766;91;21160;-77
2022/12/12 06:20:38;;;;;;;23.30;17.80;;;;;;;2.14;81.78;98655.02;1570249;90;21080;-76
2022/12/12 06:23:05;;;;;;;16.02;12.50;;;;;;;2.13;81.95;98653.36;1561755;89;21484;-78
2022/12/12 06:25:32;;;;;;;45.15;34.67;;;;;;;2.11;81.97;98648.70;1565806;89;21116;-77
2022/12/12 06:27:59;;;;;;;26.97;21.77;;;;;;;2.10;81.98;98637.93;1586517;88;21841;-77
2022/12/12 06:30:29;;;;;;;11.33;10.10;;;;;;;2.11;82.11;98622.66;1545666;90;21081;-76
2022/12/12 06:32:56;;;;;;;8.10;7.30;;;;;;;2.17;82.26;98617.02;1575162;89;21037;-75
2022/12/12 06:35:23;;;;;;;8.43;6.83;;;;;;;2.20;82.15;98657.63;1576130;89;21040;-76
2022/12/12 06:37:50;;;;;;;7.08;6.40;;;;;;;2.16;82.14;98647.92;1563112;89;20993;-75
2022/12/12 06:40:17;;;;;;;7.60;6.80;;;;;;;2.17;82.26;98631.34;1593216;87;21838;-76
2022/12/12 06:42:43;;;;;;;6.40;5.80;;;;;;;2.20;82.31;98622.00;1578170;87;21217;-76
2022/12/12 06:45:10;;;;;;;6.17;5.58;;;;;;;2.24;82.32;98625.23;1566979;89;21116;-76
2022/12/12 06:47:37;;;;;;;6.55;5.95;;;;;;;2.23;82.28;98636.59;1556442;90;21569;-75
2022/12/12 06:50:04;;;;;;;7.22;6.58;;;;;;;2.19;82.18;98643.78;1583868;88;21138;-76
2022/12/12 06:52:32;;;;;;;8.30;7.50;;;;;;;2.20;82.35;98640.70;1598491;88;21967;-75
2022/12/12 06:54:59;;;;;;;27.00;20.50;;;;;;;2.22;82.36;98640.97;1582340;88;21149;-76
2022/12/12 06:57:26;;;;;;;57.13;37.38;;;;;;;2.23;82.27;98640.03;1603360;88;21097;-76
2022/12/12 06:59:52;;;;;;;62.27;41.02;;;;;;;2.21;82.15;98615.84;1586032;88;21093;-75
2022/12/12 07:02:21;;;;;;;76.95;52.05;;;;;;;2.24;82.25;98639.08;1556135;90;21076;-75
2022/12/12 07:04:50;;;;;;;46.98;38.05;;;;;;;2.28;82.32;98638.38;1590005;88;21936;-75
2022/12/12 07:07:20;;;;;;;37.05;30.65;;;;;;;2.29;82.36;98640.86;1599213;88;21609;-76
2022/12/12 07:09:47;;;;;;;20.90;17.67;;;;;;;2.30;82.37;98660.75;1587703;88;21855;-76
2022/12/12 07:12:14;;;;;;;13.25;11.63;;;;;;;2.26;82.30;98678.87;1582811;88;21080;-76
2022/12/12 07:14:41;;;;;;;11.55;10.30;;;;;;;2.25;82.33;98692.84;1580949;87;21514;-76
2022/12/12 07:17:07;;;;;;;18.37;12.95;;;;;;;2.20;82.15;98689.72;1563450;90;22674;-76
2022/12/12 07:19:35;;;;;;;17.57;12.95;;;;;;;2.16;82.24;98698.70;1579455;89;21519;-76
2022/12/12 07:22:03;;;;;;;18.62;12.47;;;;;;;2.16;82.24;98702.61;1580447;89;21061;-77
2022/12/12 07:24:30;;;;;;;15.55;11.12;;;;;;;2.17;82.29;98693.86;1564167;89;21036;-78
2022/12/12 07:26:57;;;;;;;14.33;10.72;;;;;;;2.16;82.22;98698.70;1546832;90;20988;-77
2022/12/12 07:29:24;;;;;;;13.60;11.85;;;;;;;2.16;82.24;98701.31;1567021;89;22211;-76
2022/12/12 07:31:52;;;;;;;12.60;11.30;;;;;;;2.12;82.19;98693.34;1593405;88;20986;-76
2022/12/12 07:34:19;;;;;;;12.30;11.10;;;;;;;2.12;82.24;98688.13;1587603;88;21649;-77
2022/12/12 07:36:46;;;;;;;11.38;10.28;;;;;;;2.13;82.36;98702.84;1589085;88;21247;-78
2022/12/12 07:39:13;;;;;;;12.80;11.55;;;;;;;2.13;82.36;98704.14;1579506;88;21541;-77
2022/12/12 07:41:44;;;;;;;13.95;11.78;;;;;;;2.13;82.26;98713.26;1589925;88;21985;-77
2022/12/12 07:44:12;;;;;;;14.85;11.63;;;;;;;2.12;82.33;98718.08;1593107;88;21059;-79
2022/12/12 07:46:39;;;;;;;12.53;10.40;;;;;;;2.12;82.31;98718.08;1569985;89;21080;-76
2022/12/12 07:49:05;;;;;;;14.95;13.35;;;;;;;2.09;82.29;98719.61;1566513;89;21111;-76
2022/12/12 07:51:32;;;;;;;12.25;10.80;;;;;;;2.10;82.33;98725.65;1581161;88;21121;-76
2022/12/12 07:54:00;;;;;;;15.78;11.78;;;;;;;2.10;82.23;98727.78;1568332;89;21833;-76
2022/12/12 07:56:27;;;;;;;11.38;9.93;;;;;;;2.09;82.29;98731.80;1600707;88;21010;-76
2022/12/12 07:58:54;;;;;;;12.07;10.55;;;;;;;2.10;82.35;98734.77;1606806;88;21056;-77
2022/12/12 08:01:23;;;;;;;10.32;9.23;;;;;;;2.10;82.40;98727.78;1597455;88;21207;-77
2022/12/12 08:03:50;;;;;;;11.88;9.88;;;;;;;2.16;82.48;98726.53;1603014;87;21514;-78
2022/12/12 08:06:18;;;;;;;17.00;11.40;;;;;;;2.18;82.45;98715.05;1582310;89;21858;-79
2022/12/12 08:08:47;;;;;;;58.42;33.42;;;;;;;2.24;82.51;98720.30;1543841;90;21013;-78
2022/12/12 08:11:16;;;;;;;55.60;42.38;;;;;;;2.27;82.50;98719.60;1592333;88;21502;-79
2022/12/12 08:13:44;;;;;;;15.15;12.37;;;;;;;2.32;82.51;98717.12;1583646;89;21597;-74
2022/12/12 08:16:20;;;;;;;14.93;13.30;;;;;;;2.36;82.42;98728.53;1599947;87;21572;-76
2022/12/12 08:18:48;;;;;;;9.58;8.55;;;;;;;2.33;82.24;98722.72;1574537;88;22879;-77
2022/12/12 08:21:15;;;;;;;7.80;7.00;;;;;;;2.32;82.20;98734.06;1563928;89;21146;-78
2022/12/12 08:23:42;;;;;;;9.00;8.18;;;;;;;2.30;82.20;98736.78;1577116;89;21052;-77
2022/12/12 08:26:51;;;;;;;8.50;7.70;;;;;;;2.29;82.21;98734.64;1596795;88;21114;-77
2022/12/12 08:29:19;;;;;;;7.70;6.97;;;;;;;2.30;82.30;98735.48;1599831;88;21481;-76
2022/12/12 08:31:46;;;;;;;7.80;7.00;;;;;;;2.33;82.31;98737.05;1583303;88;21793;-76
2022/12/12 08:34:13;;;;;;;8.95;7.40;;;;;;;2.32;82.29;98741.44;1575140;89;21151;-74
2022/12/12 08:36:40;;;;;;;8.73;7.05;;;;;;;2.32;82.24;98743.17;1591641;88;20996;-77
2022/12/12 08:39:10;;;;;;;8.08;7.22;;;;;;;2.32;82.13;98754.90;1577792;88;21104;-75
2022/12/12 08:41:40;;;;;;;6.92;6.22;;;;;;;2.31;82.14;98748.86;1581794;88;21123;-81
2022/12/12 08:44:10;;;;;;;7.25;6.30;;;;;;;2.34;82.15;98738.72;1579262;87;22497;-76
2022/12/12 08:46:37;;;;;;;7.15;6.03;;;;;;;2.32;82.08;98749.25;1573213;89;21030;-77
2022/12/12 08:49:04;;;;;;;6.62;5.92;;;;;;;2.34;82.08;98760.39;1555717;90;21071;-76
2022/12/12 08:51:30;;;;;;;7.05;6.17;;;;;;;2.33;81.90;98768.31;1577494;89;21100;-78
2022/12/12 08:53:57;;;;;;;8.10;6.87;;;;;;;2.31;81.87;98771.00;1552969;90;21090;-76
2022/12/12 08:56:24;;;;;;;6.67;6.08;;;;;;;2.29;81.73;98771.59;1574587;89;21594;-77
2022/12/12 08:58:53;;;;;;;7.78;5.78;;;;;;;2.29;81.71;98783.31;1545465;90;21122;-78
2022/12/12 09:01:23;;;;;;;7.97;6.05;;;;;;;2.31;81.73;98778.82;1587026;88;21049;-76
2022/12/12 09:03:51;;;;;;;7.80;6.92;;;;;;;2.34;81.64;98777.32;1589516;88;21176;-76
2022/12/12 09:06:18;;;;;;;10.43;8.40;;;;;;;2.32;81.56;98784.86;1611398;87;21974;-77
2022/12/12 09:08:45;;;;;;;9.88;8.23;;;;;;;2.31;81.57;98794.45;1608324;88;23615;-79
2022/12/12 09:11:12;;;;;;;12.68;10.03;;;;;;;2.33;81.64;98803.48;1608620;88;21182;-81
2022/12/12 09:13:40;;;;;;;9.40;7.67;;;;;;;2.38;81.76;98806.58;1596381;88;21101;-79
2022/12/12 09:16:07;;;;;;;8.43;7.00;;;;;;;2.41;81.70;98805.05;1578595;88;21036;-77
2022/12/12 09:18:34;;;;;;;7.83;6.60;;;;;;;2.39;81.41;98799.95;1579833;89;21136;-77
2022/12/12 09:21:02;;;;;;;9.38;7.50;;;;;;;2.39;81.29;98800.43;1574252;88;21963;-75
2022/12/12 09:23:29;;;;;;;8.33;7.40;;;;;;;2.35;81.15;98808.95;1580415;89;21138;-84
2022/12/12 09:25:56;;;;;;;8.00;7.12;;;;;;;2.35;81.15;98818.06;1579104;89;21103;-78
2022/12/12 09:28:24;;;;;;;10.58;8.78;;;;;;;2.39;81.27;98826.02;1583895;88;21178;-77
2022/12/12 09:30:52;;;;;;;9.35;7.60;;;;;;;2.39;81.08;98835.13;1582347;88;21117;-79
2022/12/12 09:33:19;;;;;;;7.92;7.05;;;;;;;2.43;81.18;98838.38;1584803;88;21698;-80
2022/12/12 09:35:50;;;;;;;11.50;9.18;;;;;;;2.47;81.05;98841.94;1572104;88;21134;-81
2022/12/12 09:38:19;;;;;;;7.55;6.45;;;;;;;2.49;81.02;98847.05;1580470;89;21096;-77
2022/12/12 09:41:11;;;;;;;7.92;6.65;;;;;;;2.50;80.91;98848.70;1581411;88;21538;-79
2022/12/12 09:44:09;;;;;;;9.98;8.25;;;;;;;2.49;80.85;98845.73;1572999;88;21021;-83
2022/12/12 09:46:56;;;;;;;8.05;6.47;;;;;;;2.50;80.86;98836.98;1557642;89;22870;-81
2022/12/12 09:49:50;;;;;;;10.40;7.72;;;;;;;2.54;80.93;98832.76;1585802;89;21256;-84
2022/12/12 09:52:27;;;;;;;9.45;7.22;;;;;;;2.49;80.75;98842.66;1591202;87;21191;-85
2022/12/12 09:54:54;;;;;;;16.73;11.95;;;;;;;2.51;80.85;98847.77;1579511;88;21085;-81
2022/12/12 09:57:29;;;;;;;15.58;10.05;;;;;;;2.52;80.75;98852.06;1580773;88;21129;-74
2022/12/12 10:00:11;;;;;;;11.80;7.47;;;;;;;2.56;80.79;98859.54;1572349;89;22439;-77
2022/12/12 10:03:21;;;;;;;15.40;9.28;;;;;;;2.58;80.62;98862.03;1570239;88;21552;-79
2022/12/12 10:06:10;;;;;;;8.70;6.53;;;;;;;2.55;80.46;98870.08;1569012;89;21306;-76
2022/12/12 10:08:52;;;;;;;7.62;6.70;;;;;;;2.54;80.41;98868.41;1569730;88;21015;-77
2022/12/12 10:14:13;;;;;;;41.30;11.35;;;;;;;2.45;79.94;98868.59;1579433;88;21958;-71
2022/12/12 10:16:40;;;;;;;72.60;10.75;;;;;;;2.36;79.97;98864.02;1549526;90;21443;-77
2022/12/12 10:19:21;;;;;;;15.60;6.33;;;;;;;2.33;79.68;98862.94;1580545;88;21468;-73
2022/12/12 10:21:49;;;;;;;8.55;6.10;;;;;;;2.33;79.84;98858.20;1543725;88;21251;-74
2022/12/12 10:24:34;;;;;;;7.40;6.65;;;;;;;2.39;80.02;98857.28;1569426;88;21415;-78
2022/12/12 10:27:11;;;;;;;6.87;5.80;;;;;;;2.46;80.02;98859.00;1548477;89;21982;-79
2022/12/12 10:29:41;;;;;;;9.33;8.15;;;;;;;2.51;80.04;98860.79;1564803;88;21072;-73
2022/12/12 10:32:37;;;;;;;15.20;13.38;;;;;;;2.56;80.06;98860.02;1577388;88;21081;-76
2022/12/12 10:35:12;;;;;;;13.05;11.30;;;;;;;2.61;80.07;98864.91;1594389;88;21248;-78
2022/12/12 10:37:48;;;;;;;8.48;7.15;;;;;;;2.67;80.04;98861.86;1575649;88;21622;-77
2022/12/12 10:40:40;;;;;;;7.53;6.65;;;;;;;2.64;79.87;98875.95;1556424;89;22022;-72
2022/12/12 10:43:22;;;;;;;7.92;6.03;;;;;;;2.63;79.80;98866.94;1575543;88;21097;-75
2022/12/12 10:46:18;;;;;;;13.55;7.08;;;;;;;2.62;79.75;98870.48;1548746;90;21100;-77
2022/12/12 10:48:46;;;;;;;14.73;6.80;;;;;;;2.60;79.71;98873.17;1564380;90;21067;-77
2022/12/12 10:51:14;;;;;;;25.62;7.53;;;;;;;2.65;79.76;98878.08;1547185;90;21110;-76
2022/12/12 10:53:41;;;;;;;7.90;5.80;;;;;;;2.65;79.79;98885.42;1556329;90;21889;-79
2022/12/12 10:56:19;;;;;;;28.40;7.92;;;;;;;2.67;79.80;98897.05;1556336;90;21174;-76
2022/12/12 10:58:53;;;;;;;12.10;6.67;;;;;;;2.66;79.67;98897.52;1584185;88;21159;-79
2022/12/12 11:01:36;;;;;;;7.28;6.03;;;;;;;2.64;79.54;98909.84;1576775;88;21641;-78
2022/12/12 11:04:06;;;;;;;;;;;;;;;2.61;79.44;98904.84;1579796;88;21644;-80
2022/12/12 11:06:41;;;;;;;8.88;6.35;;;;;;;2.59;79.28;98924.95;1577816;89;21864;-78
2022/12/12 11:09:25;;;;;;;8.05;6.87;;;;;;;2.55;79.21;98931.33;1574553;89;21124;-79
2022/12/12 11:12:14;;;;;;;15.98;13.35;;;;;;;2.49;79.00;98937.78;1562320;89;21189;-83
2022/12/12 11:14:50;;;;;;;9.88;7.90;;;;;;;2.48;79.10;98941.80;1581023;88;21157;-80
2022/12/12 11:17:22;;;;;;;8.98;7.85;;;;;;;2.45;78.94;98943.33;1555097;90;21106;-78
2022/12/12 11:19:50;;;;;;;8.70;7.15;;;;;;;2.38;78.54;98941.60;1581433;88;22963;-76
2022/12/12 11:22:18;;;;;;;10.93;8.38;;;;;;;2.34;78.55;98946.67;1558827;89;21052;-77
2022/12/12 11:24:49;;;;;;;10.53;8.80;;;;;;;2.33;78.58;98955.91;1553457;90;21255;-77
2022/12/12 11:27:39;;;;;;;9.18;7.78;;;;;;;2.34;78.40;98965.38;1576302;88;21088;-82
2022/12/12 11:30:22;;;;;;;8.88;7.58;;;;;;;2.28;77.98;98958.80;1577716;88;21065;-83
2022/12/12 11:32:49;;;;;;;9.50;7.28;;;;;;;2.22;77.83;98956.60;1545714;90;21883;-81
2022/12/12 11:35:38;;;;;;;10.08;8.65;;;;;;;2.21;77.86;98963.58;1561334;89;21168;-78
2022/12/12 11:38:14;;;;;;;10.82;8.18;;;;;;;2.21;77.69;98962.28;1574652;89;21471;-82
2022/12/12 11:40:41;;;;;;;12.90;8.90;;;;;;;2.19;77.60;98955.05;1557808;89;21186;-80
2022/12/12 11:43:27;;;;;;;10.90;8.43;;;;;;;2.18;77.48;98952.55;1573475;88;21155;-78
2022/12/12 11:46:08;;;;;;;10.80;8.83;;;;;;;2.17;77.42;98950.89;1578521;88;21854;-78
2022/12/12 11:48:53;;;;;;;12.90;9.95;;;;;;;2.18;77.31;98949.95;1582490;88;21084;-81
2022/12/12 11:51:42;;;;;;;12.33;9.35;;;;;;;2.19;77.18;98949.84;1576776;88;21090;-79
2022/12/12 11:54:19;;;;;;;11.78;9.78;;;;;;;2.22;77.26;98956.16;1558542;88;21154;-78
2022/12/12 11:57:25;;;;;;;13.70;10.13;;;;;;;2.25;77.05;98971.58;1577673;88;21100;-77
2022/12/12 12:00:18;;;;;;;13.78;11.30;;;;;;;2.23;76.89;98971.33;1580704;88;21941;-78
2022/12/12 12:03:25;;;;;;;26.00;17.52;;;;;;;2.16;76.16;98969.59;1569123;89;21104;-79
2022/12/12 12:06:24;;;;;;;14.53;11.20;;;;;;;2.10;75.78;98963.95;1550479;90;21134;-78
2022/12/12 12:09:19;;;;;;;13.03;11.10;;;;;;;2.01;75.54;98977.95;1534787;90;21516;-79
2022/12/12 12:12:17;;;;;;;13.48;10.43;;;;;;;1.93;75.51;98984.59;1550543;90;21737;-79
2022/12/12 12:15:26;;;;;;;15.63;11.73;;;;;;;1.86;75.35;98992.47;1538368;90;21857;-78
2022/12/12 12:18:23;;;;;;;14.80;11.90;;;;;;;1.81;75.38;98992.75;1528421;91;21739;-79